createdAt,value
2023-01-20T00:01:37.838Z,34.40
2023-01-20T00:04:06.382Z,34.40
2023-01-20T00:06:34.361Z,34.90
2023-01-20T00:09:04.715Z,33.50
2023-01-20T00:11:33.204Z,33.70
2023-01-20T00:14:02.538Z,33.60
2023-01-20T00:16:32.038Z,33.30
2023-01-20T00:19:00.671Z,33.40
2023-01-20T00:21:29.076Z,35.00
2023-01-20T00:23:57.110Z,33.70
2023-01-20T00:26:25.908Z,32.20
2023-01-20T00:28:56.185Z,32.90
2023-01-20T00:31:28.764Z,31.60
2023-01-20T00:33:59.000Z,33.80
2023-01-20T00:36:28.975Z,34.60
2023-01-20T00:38:57.975Z,32.80
2023-01-20T00:41:26.048Z,32.20
2023-01-20T00:43:54.119Z,32.30
2023-01-20T00:46:23.225Z,34.00
2023-01-20T00:48:51.310Z,33.30
2023-01-20T00:51:19.624Z,34.20
2023-01-20T00:53:47.975Z,33.00
2023-01-20T00:56:15.843Z,34.60
2023-01-20T00:58:44.510Z,33.70
2023-01-20T01:01:13.062Z,31.60
2023-01-20T01:03:41.318Z,34.20
2023-01-20T01:06:18.445Z,34.40
2023-01-20T01:08:46.461Z,33.90
2023-01-20T01:11:14.867Z,32.00
2023-01-20T01:13:43.211Z,31.90
2023-01-20T01:16:15.820Z,33.00
2023-01-20T01:18:44.307Z,33.40
2023-01-20T01:21:15.125Z,32.70
2023-01-20T01:23:43.741Z,31.10
2023-01-20T01:26:12.631Z,33.10
2023-01-20T01:28:40.865Z,31.50
2023-01-20T01:31:10.233Z,31.10
2023-01-20T01:33:38.607Z,32.90
2023-01-20T01:36:08.710Z,31.90
2023-01-20T01:38:36.747Z,31.00
2023-01-20T01:41:04.940Z,32.50
2023-01-20T01:43:36.686Z,33.30
2023-01-20T01:46:06.000Z,32.50
2023-01-20T01:48:38.657Z,31.30
2023-01-20T01:51:18.542Z,32.70
2023-01-20T01:53:53.857Z,33.20
2023-01-20T01:56:23.877Z,33.50
2023-01-20T01:58:56.728Z,33.80
2023-01-20T02:01:26.498Z,34.80
2023-01-20T02:04:24.062Z,35.10
2023-01-20T02:06:59.067Z,36.80
2023-01-20T02:09:27.543Z,35.50
2023-01-20T02:12:02.496Z,36.80
2023-01-20T02:14:43.937Z,35.70
2023-01-20T02:17:26.027Z,27.10
2023-01-20T02:20:12.792Z,35.70
2023-01-20T02:23:19.050Z,35.50
2023-01-20T02:26:05.749Z,34.70
2023-01-20T02:28:52.113Z,33.10
2023-01-20T02:31:31.922Z,32.90
2023-01-20T02:34:20.742Z,34.70
2023-01-20T02:36:55.375Z,32.10
2023-01-20T02:39:31.107Z,33.70
2023-01-20T02:42:08.301Z,32.00
2023-01-20T02:44:44.900Z,32.70
2023-01-20T02:47:20.869Z,31.50
2023-01-20T02:50:04.893Z,30.20
2023-01-20T02:52:37.361Z,29.40
2023-01-20T02:55:10.864Z,31.20
2023-01-20T02:57:50.561Z,29.30
2023-01-20T03:00:25.882Z,29.30
2023-01-20T03:02:57.543Z,31.40
2023-01-20T03:05:31.851Z,29.80
2023-01-20T03:08:04.256Z,29.50
2023-01-20T03:10:35.232Z,29.00
2023-01-20T03:13:13.806Z,28.90
2023-01-20T03:16:02.874Z,28.50
2023-01-20T03:18:33.885Z,27.50
2023-01-20T03:21:03.448Z,29.90
2023-01-20T03:23:35.263Z,28.90
2023-01-20T03:26:07.591Z,28.00
2023-01-20T03:28:35.702Z,28.30
2023-01-20T03:31:13.624Z,32.30
2023-01-20T03:33:43.224Z,31.50
2023-01-20T03:36:12.480Z,30.10
2023-01-20T03:38:40.412Z,31.10
2023-01-20T03:41:44.931Z,32.80
2023-01-20T03:44:50.495Z,32.30
2023-01-20T03:47:33.137Z,29.00
2023-01-20T03:50:06.968Z,28.50
2023-01-20T03:52:47.161Z,29.10
2023-01-20T03:55:20.729Z,28.90
2023-01-20T03:57:58.583Z,29.40
2023-01-20T04:05:11.345Z,25.90
2023-01-20T04:07:40.545Z,29.30
2023-01-20T04:10:12.929Z,29.70
2023-01-20T04:12:40.943Z,29.90
2023-01-20T04:15:10.775Z,29.10
2023-01-20T04:17:38.726Z,28.20
2023-01-20T04:20:10.451Z,27.70
2023-01-20T04:22:49.126Z,29.10
2023-01-20T04:25:30.197Z,29.20
2023-01-20T04:27:58.415Z,28.60
2023-01-20T04:34:40.010Z,28.60
2023-01-20T04:37:08.262Z,30.80
2023-01-20T04:39:36.157Z,31.10
2023-01-20T04:42:04.948Z,29.90
2023-01-20T04:44:32.977Z,29.20
2023-01-20T04:47:01.024Z,29.50
2023-01-20T04:49:28.994Z,30.60
2023-01-20T04:51:56.770Z,28.20
2023-01-20T04:54:24.603Z,28.60
2023-01-20T04:56:52.563Z,29.80
2023-01-20T04:59:20.437Z,29.30
2023-01-20T05:01:48.493Z,31.00
2023-01-20T05:04:16.385Z,29.50
2023-01-20T05:06:45.080Z,28.40
2023-01-20T05:09:15.509Z,29.80
2023-01-20T05:11:44.138Z,29.00
2023-01-20T05:14:13.032Z,28.70
2023-01-20T05:16:41.026Z,29.10
2023-01-20T05:19:24.172Z,28.30
2023-01-20T05:22:03.964Z,28.70
2023-01-20T05:24:31.900Z,28.30
2023-01-20T05:27:01.869Z,31.30
2023-01-20T05:29:30.391Z,32.10
2023-01-20T05:31:58.257Z,34.90
2023-01-20T05:34:26.086Z,38.30
2023-01-20T05:36:54.905Z,36.80
2023-01-20T05:39:22.953Z,38.70
2023-01-20T05:41:51.014Z,39.80
2023-01-20T05:44:19.506Z,40.50
2023-01-20T05:46:47.471Z,39.70
2023-01-20T05:49:15.393Z,42.00
2023-01-20T05:51:43.380Z,41.80
2023-01-20T05:54:11.345Z,41.50
2023-01-20T05:56:39.568Z,44.20
2023-01-20T05:59:08.161Z,46.40
2023-01-20T06:01:36.461Z,47.00
2023-01-20T06:04:04.602Z,46.90
2023-01-20T06:06:32.776Z,47.10
2023-01-20T06:09:00.939Z,49.80
2023-01-20T06:11:29.022Z,48.10
2023-01-20T06:13:56.869Z,50.10
2023-01-20T06:16:24.766Z,50.70
2023-01-20T06:18:52.756Z,51.80
2023-01-20T06:21:20.818Z,52.40
2023-01-20T06:23:48.659Z,53.20
2023-01-20T06:26:16.805Z,50.20
2023-01-20T06:28:44.915Z,50.20
2023-01-20T06:31:15.805Z,50.40
2023-01-20T06:33:43.816Z,51.50
2023-01-20T06:36:14.020Z,49.90
2023-01-20T06:38:42.055Z,50.60
2023-01-20T06:41:11.254Z,51.90
2023-01-20T06:43:40.349Z,52.80
2023-01-20T06:46:12.337Z,53.70
2023-01-20T06:48:41.228Z,53.20
2023-01-20T06:51:14.938Z,52.20
2023-01-20T06:53:43.441Z,50.80
2023-01-20T06:56:15.535Z,50.40
2023-01-20T06:58:43.777Z,49.10
2023-01-20T07:01:15.196Z,51.60
2023-01-20T07:03:46.102Z,50.70
2023-01-20T07:06:16.193Z,49.80
2023-01-20T07:08:45.590Z,50.10
2023-01-20T07:11:13.518Z,49.10
2023-01-20T07:13:41.613Z,48.70
2023-01-20T07:16:11.579Z,50.30
2023-01-20T07:18:41.516Z,49.00
2023-01-20T07:21:11.706Z,49.40
2023-01-20T07:23:39.972Z,51.70
2023-01-20T07:26:10.521Z,51.90
2023-01-20T07:28:38.596Z,50.00
2023-01-20T07:31:14.940Z,49.20
2023-01-20T07:33:43.344Z,49.20
2023-01-20T07:36:12.763Z,49.70
2023-01-20T07:38:41.340Z,49.30
2023-01-20T07:41:20.357Z,51.30
2023-01-20T07:43:50.571Z,53.40
2023-01-20T07:46:19.681Z,53.90
2023-01-20T07:48:47.699Z,54.30
2023-01-20T07:51:16.776Z,54.10
2023-01-20T07:53:47.377Z,53.40
2023-01-20T07:56:25.011Z,52.90
2023-01-20T07:58:54.799Z,53.70
2023-01-20T08:01:28.075Z,52.90
2023-01-20T08:03:57.343Z,52.70
2023-01-20T08:06:26.787Z,51.60
2023-01-20T08:08:57.679Z,53.30
2023-01-20T08:11:26.935Z,51.50
2023-01-20T08:13:55.067Z,52.10
2023-01-20T08:16:23.219Z,49.70
2023-01-20T08:18:53.896Z,51.20
2023-01-20T08:21:24.846Z,50.40
2023-01-20T08:23:55.541Z,48.40
2023-01-20T08:26:28.357Z,50.60
2023-01-20T08:29:06.856Z,51.00
2023-01-20T08:31:35.686Z,50.20
2023-01-20T08:34:03.802Z,47.50
2023-01-20T08:36:34.917Z,48.10
2023-01-20T08:39:06.237Z,48.50
2023-01-20T08:41:37.213Z,49.10
2023-01-20T08:44:07.770Z,47.70
2023-01-20T08:46:39.849Z,47.70
2023-01-20T08:49:12.927Z,46.80
2023-01-20T08:51:42.366Z,48.60
2023-01-20T08:54:10.562Z,46.80
2023-01-20T08:56:38.735Z,45.60
2023-01-20T08:59:07.294Z,46.30
2023-01-20T09:01:38.525Z,45.00
2023-01-20T09:04:07.673Z,44.60
2023-01-20T09:06:45.099Z,48.40
2023-01-20T09:09:15.088Z,44.90
2023-01-20T09:11:50.459Z,44.80
2023-01-20T09:14:23.561Z,45.80
2023-01-20T09:16:51.599Z,44.20
2023-01-20T09:19:19.552Z,44.40
2023-01-20T09:21:47.447Z,44.00
2023-01-20T09:24:15.462Z,47.30
2023-01-20T09:26:43.450Z,44.70
2023-01-20T09:29:13.522Z,43.60
2023-01-20T09:31:59.598Z,44.50
2023-01-20T09:34:29.473Z,43.90
2023-01-20T09:37:19.641Z,44.70
2023-01-20T09:40:06.860Z,43.60
2023-01-20T09:43:08.508Z,42.50
2023-01-20T09:45:44.580Z,42.60
2023-01-20T09:48:34.015Z,42.80
2023-01-20T09:51:30.473Z,42.80
2023-01-20T09:54:14.292Z,41.80
2023-01-20T09:56:47.963Z,40.20
2023-01-20T09:59:25.204Z,39.80
2023-01-20T10:01:57.812Z,45.30
2023-01-20T10:04:50.028Z,46.90
2023-01-20T10:07:29.823Z,41.80
2023-01-20T10:10:09.535Z,36.70
2023-01-20T10:13:21.947Z,38.50
2023-01-20T10:15:57.239Z,37.40
2023-01-20T10:18:49.311Z,37.50
2023-01-20T10:21:28.872Z,36.70
2023-01-20T10:24:07.476Z,38.10
2023-01-20T10:26:47.562Z,36.70
2023-01-20T10:29:27.442Z,36.50
2023-01-20T10:32:05.919Z,33.90
2023-01-20T10:34:47.912Z,32.50
2023-01-20T10:37:16.781Z,32.80
2023-01-20T10:40:14.475Z,34.50
2023-01-20T10:42:48.868Z,33.40
2023-01-20T10:45:32.396Z,33.00
2023-01-20T10:48:41.142Z,33.50
2023-01-20T10:51:13.528Z,31.30
2023-01-20T10:53:44.197Z,32.90
2023-01-20T10:56:34.237Z,30.00
2023-01-20T10:59:13.880Z,31.70
2023-01-20T11:04:38.126Z,27.80
2023-01-20T11:07:09.835Z,29.20
2023-01-20T11:09:38.034Z,29.60
2023-01-20T11:12:23.212Z,28.60
2023-01-20T11:14:53.844Z,27.10
2023-01-20T11:17:21.940Z,26.10
2023-01-20T11:19:53.419Z,26.40
2023-01-20T11:22:29.690Z,24.50
2023-01-20T11:25:04.123Z,25.30
2023-01-20T11:27:41.455Z,25.00
2023-01-20T11:30:32.077Z,23.90
2023-01-20T11:33:28.191Z,23.30
2023-01-20T11:36:01.913Z,24.20
2023-01-20T11:38:32.602Z,23.10
2023-01-20T11:41:00.573Z,23.50
2023-01-20T11:43:35.691Z,23.30
2023-01-20T11:46:20.077Z,23.00
2023-01-20T11:48:48.712Z,22.60
2023-01-20T11:51:25.425Z,22.90
2023-01-20T11:54:08.295Z,21.90
2023-01-20T11:56:41.986Z,21.70
2023-01-20T11:59:31.124Z,20.20
2023-01-20T12:02:09.767Z,20.10
2023-01-20T12:04:46.339Z,22.20
2023-01-20T12:07:18.870Z,21.60
2023-01-20T12:09:51.352Z,21.20
2023-01-20T12:12:48.324Z,21.70
2023-01-20T12:15:25.550Z,23.50
2023-01-20T12:18:00.990Z,22.30
2023-01-20T12:20:57.769Z,22.20
2023-01-20T12:24:20.989Z,23.70
2023-01-20T12:26:49.846Z,20.00
2023-01-20T12:29:26.037Z,20.90
2023-01-20T12:31:54.569Z,21.10
2023-01-20T12:34:29.749Z,20.00
2023-01-20T12:37:13.396Z,19.00
2023-01-20T12:39:41.453Z,18.50
2023-01-20T12:42:21.324Z,19.50
2023-01-20T12:45:18.248Z,19.40
2023-01-20T12:48:10.088Z,19.30
2023-01-20T12:51:05.994Z,15.50
2023-01-20T12:54:00.044Z,18.40
2023-01-20T12:56:50.529Z,18.80
2023-01-20T12:59:41.754Z,18.50
2023-01-20T13:02:43.165Z,17.50
2023-01-20T13:05:44.992Z,20.80
2023-01-20T13:08:28.837Z,17.70
2023-01-20T13:11:21.009Z,18.10
2023-01-20T13:14:07.553Z,17.60
2023-01-20T13:17:01.122Z,16.40
2023-01-20T13:19:33.230Z,18.70
2023-01-20T13:24:37.552Z,17.40
2023-01-20T13:27:06.102Z,13.80
2023-01-20T13:29:36.967Z,18.60
2023-01-20T13:32:35.260Z,17.20
2023-01-20T13:35:35.319Z,14.30
2023-01-20T13:38:03.567Z,18.80
2023-01-20T13:40:37.418Z,17.90
2023-01-20T13:43:28.215Z,18.30
2023-01-20T13:46:05.810Z,10.60
2023-01-20T13:48:36.221Z,15.60
2023-01-20T13:51:36.372Z,14.90
2023-01-20T13:54:23.176Z,15.40
2023-01-20T13:56:52.128Z,16.80
2023-01-20T13:59:19.957Z,15.30
2023-01-20T14:01:47.828Z,16.40
2023-01-20T14:04:18.953Z,14.10
2023-01-20T14:06:52.514Z,14.60
2023-01-20T14:09:26.138Z,16.00
2023-01-20T14:11:57.218Z,12.90
2023-01-20T14:14:26.756Z,13.40
2023-01-20T14:16:56.354Z,15.80
2023-01-20T14:19:27.593Z,15.10
2023-01-20T14:21:57.842Z,16.60
2023-01-20T14:24:38.064Z,15.90
2023-01-20T14:27:17.560Z,15.90
2023-01-20T14:29:47.092Z,15.30
2023-01-20T14:32:22.179Z,15.10
2023-01-20T14:34:52.094Z,14.80
2023-01-20T14:37:35.375Z,15.80
2023-01-20T14:40:31.469Z,16.00
2023-01-20T14:43:02.012Z,16.70
2023-01-20T14:45:32.389Z,13.20
2023-01-20T14:48:02.695Z,11.70
2023-01-20T14:50:31.300Z,13.60
2023-01-20T14:53:00.513Z,11.80
2023-01-20T14:55:35.642Z,10.00
2023-01-20T14:58:14.306Z,15.00
2023-01-20T15:01:00.668Z,14.30
2023-01-20T15:03:29.924Z,14.30
2023-01-20T15:06:14.990Z,11.70
2023-01-20T15:09:04.462Z,14.00
2023-01-20T15:11:34.546Z,14.50
2023-01-20T15:14:03.656Z,5.50
2023-01-20T15:16:44.191Z,14.80
2023-01-20T15:19:15.372Z,7.10
2023-01-20T15:21:56.452Z,7.00
2023-01-20T15:24:30.681Z,8.20
2023-01-20T15:27:01.409Z,10.10
2023-01-20T15:29:36.720Z,11.20
2023-01-20T15:32:12.569Z,11.30
2023-01-20T15:34:40.874Z,9.80
2023-01-20T15:37:21.359Z,10.90
2023-01-20T15:39:49.517Z,11.10
2023-01-20T15:42:18.961Z,12.50
2023-01-20T15:44:47.009Z,13.00
2023-01-20T15:47:26.107Z,13.10
2023-01-20T15:49:59.661Z,14.30
2023-01-20T15:52:27.507Z,13.70
2023-01-20T15:54:55.394Z,14.30
2023-01-20T15:57:23.515Z,15.50
2023-01-20T15:59:51.287Z,13.30
2023-01-20T16:02:21.011Z,13.30
2023-01-20T16:04:50.016Z,13.70
2023-01-20T16:07:20.496Z,12.10
2023-01-20T16:09:49.229Z,14.90
2023-01-20T16:12:18.518Z,14.50
2023-01-20T16:14:46.457Z,16.40
2023-01-20T16:17:17.183Z,16.30
2023-01-20T16:19:45.360Z,15.00
2023-01-20T16:22:14.133Z,9.60
2023-01-20T16:24:45.368Z,19.70
2023-01-20T16:27:22.833Z,18.40
2023-01-20T16:29:50.780Z,17.50
2023-01-20T16:32:22.391Z,12.10
2023-01-20T16:34:51.548Z,18.60
2023-01-20T16:37:19.319Z,16.70
2023-01-20T16:39:47.262Z,18.80
2023-01-20T16:42:16.041Z,17.50
2023-01-20T16:44:44.019Z,17.30
2023-01-20T16:47:12.207Z,10.90
2023-01-20T16:49:40.187Z,9.50
2023-01-20T16:52:08.301Z,14.50
2023-01-20T16:54:36.127Z,19.30
2023-01-20T16:57:04.078Z,13.80
2023-01-20T16:59:31.844Z,18.30
2023-01-20T17:01:59.680Z,16.60
2023-01-20T17:04:27.495Z,17.70
2023-01-20T17:06:55.538Z,11.70
2023-01-20T17:09:23.435Z,6.90
2023-01-20T17:11:51.368Z,10.90
2023-01-20T17:14:19.418Z,7.00
2023-01-20T17:16:47.348Z,12.90
2023-01-20T17:19:17.615Z,10.00
2023-01-20T17:21:45.588Z,4.90
2023-01-20T17:24:13.447Z,10.90
2023-01-20T17:26:41.493Z,4.30
2023-01-20T17:29:14.027Z,5.90
2023-01-20T17:31:42.954Z,5.30
2023-01-20T17:34:11.385Z,5.80
2023-01-20T17:36:39.291Z,7.60
2023-01-20T17:39:07.968Z,12.10
2023-01-20T17:41:36.768Z,11.90
2023-01-20T17:44:06.160Z,10.20
2023-01-20T17:46:34.053Z,5.20
2023-01-20T17:49:04.788Z,7.50
2023-01-20T17:51:41.303Z,10.00
2023-01-20T17:54:09.624Z,13.30
2023-01-20T17:56:37.617Z,10.40
2023-01-20T17:59:06.010Z,6.90
2023-01-20T18:01:34.094Z,6.10
2023-01-20T18:04:04.436Z,12.70
2023-01-20T18:06:35.105Z,11.70
2023-01-20T18:09:04.476Z,7.10
2023-01-20T18:11:36.111Z,9.50
2023-01-20T18:14:05.733Z,8.50
2023-01-20T18:16:39.679Z,12.00
2023-01-20T18:19:11.290Z,11.10
2023-01-20T18:21:41.168Z,11.30
2023-01-20T18:24:10.861Z,11.20
2023-01-20T18:26:40.565Z,12.00
2023-01-20T18:29:13.922Z,10.20
2023-01-20T18:31:43.019Z,9.80
2023-01-20T18:34:13.163Z,9.50
2023-01-20T18:36:46.012Z,5.40
2023-01-20T18:39:19.635Z,10.50
2023-01-20T18:41:48.826Z,6.10
2023-01-20T18:44:19.165Z,6.70
2023-01-20T18:46:47.367Z,9.20
2023-01-20T18:49:16.815Z,9.00
2023-01-20T18:54:47.040Z,10.30
2023-01-20T18:57:14.895Z,10.80
2023-01-20T18:59:43.346Z,10.20
2023-01-20T19:04:35.830Z,8.40
2023-01-20T19:07:03.847Z,9.30
2023-01-20T19:09:31.761Z,10.10
2023-01-20T19:11:59.735Z,11.60
2023-01-20T19:14:27.833Z,12.30
2023-01-20T19:16:55.935Z,6.00
2023-01-20T19:19:23.852Z,6.10
2023-01-20T19:21:52.709Z,10.60
2023-01-20T19:24:21.750Z,10.40
2023-01-20T19:26:50.108Z,8.90
2023-01-20T19:29:18.915Z,11.10
2023-01-20T19:31:47.637Z,10.60
2023-01-20T19:34:16.070Z,9.00
2023-01-20T19:36:44.164Z,10.10
2023-01-20T19:39:12.166Z,5.60
2023-01-20T19:41:41.057Z,5.00
2023-01-20T19:44:11.171Z,9.20
2023-01-20T19:46:45.815Z,6.30
2023-01-20T19:49:13.898Z,9.40
2023-01-20T19:51:41.842Z,6.40
2023-01-20T19:54:12.679Z,7.20
2023-01-20T19:56:41.319Z,9.50
2023-01-20T19:59:12.355Z,8.10
2023-01-20T20:01:40.440Z,8.00
2023-01-20T20:04:13.030Z,8.60
2023-01-20T20:06:48.471Z,8.10
2023-01-20T20:09:20.040Z,10.20
2023-01-20T20:11:48.423Z,8.90
2023-01-20T20:14:19.112Z,7.40
2023-01-20T20:16:48.388Z,9.50
2023-01-20T20:19:19.801Z,6.20
2023-01-20T20:21:47.888Z,7.90
2023-01-20T20:24:17.654Z,6.10
2023-01-20T20:26:46.856Z,4.90
2023-01-20T20:29:17.011Z,4.00
2023-01-20T20:31:45.374Z,4.70
2023-01-20T20:34:16.922Z,5.30
2023-01-20T20:36:45.449Z,5.10
2023-01-20T20:39:15.609Z,3.60
2023-01-20T20:42:24.146Z,5.50
2023-01-20T20:44:52.183Z,3.80
2023-01-20T20:47:20.462Z,4.70
2023-01-20T20:49:48.599Z,6.20
2023-01-20T20:52:16.520Z,5.20
2023-01-20T20:54:44.412Z,6.80
2023-01-20T20:57:12.500Z,4.40
2023-01-20T20:59:58.035Z,6.80
2023-01-20T21:02:26.827Z,8.00
2023-01-20T21:04:55.177Z,4.70
2023-01-20T21:07:25.320Z,8.20
2023-01-20T21:09:53.476Z,8.20
2023-01-20T21:12:21.517Z,5.60
2023-01-20T21:14:49.430Z,10.40
2023-01-20T21:17:17.656Z,7.60
2023-01-20T21:19:46.739Z,6.80
2023-01-20T21:22:14.848Z,6.50
2023-01-20T21:24:43.037Z,5.60
2023-01-20T21:27:11.103Z,5.90
2023-01-20T21:29:39.225Z,6.60
2023-01-20T21:32:07.367Z,9.50
2023-01-20T21:34:35.433Z,7.30
2023-01-20T21:37:18.452Z,6.50
2023-01-20T21:39:46.613Z,4.90
2023-01-20T21:42:15.272Z,6.90
2023-01-20T21:44:43.430Z,5.00
2023-01-20T21:47:11.663Z,7.90
2023-01-20T21:49:58.023Z,6.00
2023-01-20T21:52:41.480Z,3.60
2023-01-20T21:55:19.663Z,4.50
2023-01-20T21:57:51.144Z,3.30
2023-01-20T22:00:20.200Z,3.90
2023-01-20T22:02:53.989Z,3.20
2023-01-20T22:05:21.951Z,5.90
2023-01-20T22:07:50.014Z,3.00
2023-01-20T22:10:18.501Z,5.10
2023-01-20T22:12:46.914Z,5.70
2023-01-20T22:15:15.086Z,3.40
2023-01-20T22:17:43.575Z,3.90
2023-01-20T22:20:12.014Z,6.50
2023-01-20T22:22:40.017Z,4.70
2023-01-20T22:25:08.356Z,6.20
2023-01-20T22:27:36.385Z,4.70
2023-01-20T22:30:04.772Z,6.40
2023-01-20T22:32:32.721Z,3.50
2023-01-20T22:35:00.708Z,3.60
2023-01-20T22:37:31.293Z,5.40
2023-01-20T22:39:59.368Z,3.80
2023-01-20T22:42:27.376Z,4.00
2023-01-20T22:44:55.815Z,2.80
2023-01-20T22:47:23.829Z,4.70
2023-01-20T22:49:54.662Z,4.20
2023-01-20T22:52:26.062Z,6.50
2023-01-20T22:54:54.095Z,4.90
2023-01-20T22:57:22.064Z,6.10
2023-01-20T22:59:50.082Z,3.50
2023-01-20T23:02:18.035Z,5.40
2023-01-20T23:04:45.999Z,5.90
2023-01-20T23:07:14.380Z,3.80
2023-01-20T23:09:42.541Z,4.20
2023-01-20T23:12:10.832Z,5.20
2023-01-20T23:14:57.622Z,6.40
2023-01-20T23:17:30.917Z,5.60
2023-01-20T23:19:59.047Z,3.40
2023-01-20T23:22:27.054Z,5.80
2023-01-20T23:24:54.967Z,7.90
2023-01-20T23:27:42.848Z,5.50
2023-01-20T23:30:11.435Z,6.60
2023-01-20T23:32:39.493Z,3.70
2023-01-20T23:35:07.717Z,3.50
2023-01-20T23:37:35.727Z,8.20
2023-01-20T23:40:04.275Z,4.90
2023-01-20T23:42:32.212Z,4.20
2023-01-20T23:45:00.240Z,6.30
2023-01-20T23:47:28.213Z,5.50
2023-01-20T23:49:56.148Z,6.30
2023-01-20T23:52:26.002Z,6.70
2023-01-20T23:54:54.078Z,6.10
2023-01-20T23:57:22.260Z,5.50
2023-01-20T23:59:50.359Z,5.40
